Cincinnati, Ohio
Traffic Map
Current Weather Conditions
Cincinnati, Ohio
Clear
Clear
43°
Feels Like: 37°
Wind Chill: 37° Ceiling: Unl
Heat Index: 43° Visibility: 10mi
Dew Point: 28° Wind: 10mph
Humidity: 56% Direction: 180° (S)
Pressure: 29.95in Gusts: 17mph
Raw Report DataKLUK 111753Z 18009G15KT 10SM CLR 06/M02 A2995 RMK AO2 PRESFR SLP145 T00611022 10061 21072 58044
Traffic Incident Summary
Active as of:
Severity:
Category:
InformationThere was an issue retrieving the traffic information for this location. Please try a different location or try again shortly.
Advertisements